Washington, Texas
Current Conditions -  °F | °C
As of 10:55 PM on Sunday 21 Dec 2014 (Local Time) from K11R Reporting Station
Overcast Overcast  
Wind Chill: 58°   Ceiling: 2400
Heat Index: 58°   Visibility: 10mi
Dew Point: 54°   Wind: 7mph
Humidity: 87%   Direction: 170°S
Pressure: 29.87"   Gusts: NA
Location:  30.33°N, 96.16°W
Report Text: K11R 220455Z AUTO 17006KT 10SM OVC024 15/12 A2987 RMK AO2 T01450124
Loading
Personal Weather Stations






























Interactive Weather Map New forecast layout! Learn more

10-Day Weather Forecast

Advertisements
Track Severe Weather on mobile